Time,TemperatureF,DewpointF,PressureIn,WindDirection,WindDirectionDegrees,WindSpeedMPH,WindSpeedGustMPH,Humidity,HourlyPrecipIn,Conditions,Clouds,dailyrainin,SolarRadiationWatts/m^2,SoftwareType,DateUTC
2013-02-16 00:04:00,35.6,30.9,30.29,NNW,327,0.0,0.0,83,0.00,,,0.00,0,WeatherHawk,2013-02-16 08:04:00,
2013-02-16 00:09:00,36.6,32.0,30.29,SE,137,1.0,0.0,83,0.00,,,0.00,0,WeatherHawk,2013-02-16 08:09:00,
2013-02-16 00:14:00,36.4,31.5,30.29,SSW,192,0.0,0.0,82,0.00,,,0.00,0,WeatherHawk,2013-02-16 08:14:00,
2013-02-16 00:19:00,35.3,29.7,30.29,NNW,341,0.0,0.0,80,0.00,,,0.00,0,WeatherHawk,2013-02-16 08:19:00,
2013-02-16 00:24:00,34.5,29.2,30.29,West,280,0.0,0.0,81,0.00,,,0.00,0,WeatherHawk,2013-02-16 08:24:00,
2013-02-16 00:29:00,34.8,30.1,30.29,NNW,329,3.0,0.0,83,0.00,,,0.00,0,WeatherHawk,2013-02-16 08:29:00,
2013-02-16 00:34:00,33.1,28.8,30.29,NNW,329,0.0,0.0,84,0.00,,,0.00,1,WeatherHawk,2013-02-16 08:34:00,
2013-02-16 00:39:00,33.8,29.8,30.29,North,349,0.0,0.0,85,0.00,,,0.00,0,WeatherHawk,2013-02-16 08:39:00,
2013-02-16 00:44:00,36.1,32.6,30.29,SE,136,0.0,-999.0,87,0.00,,,0.00,0,WeatherHawk,2013-02-16 08:44:00,
2013-02-16 00:49:00,35.7,32.2,30.29,ESE,113,0.0,0.0,87,0.00,,,0.00,0,WeatherHawk,2013-02-16 08:49:00,
2013-02-16 00:54:00,36.3,32.5,30.29,SE,134,1.0,-999.0,86,0.00,,,0.00,0,WeatherHawk,2013-02-16 08:54:00,
2013-02-16 00:59:00,35.9,31.3,30.29,North,3,0.0,0.0,83,0.00,,,0.00,0,WeatherHawk,2013-02-16 08:59:00,
2013-02-16 01:04:00,34.6,29.4,30.29,NNE,12,0.0,0.0,81,0.00,,,0.00,1,WeatherHawk,2013-02-16 09:04:00,
2013-02-16 01:09:00,34.0,29.7,30.28,SE,139,0.0,0.0,84,0.00,,,0.00,0,WeatherHawk,2013-02-16 09:09:00,
2013-02-16 01:14:00,34.4,30.9,30.28,SE,139,0.0,0.0,87,0.00,,,0.00,0,WeatherHawk,2013-02-16 09:14:00,
2013-02-16 01:19:00,33.3,30.2,30.28,SE,136,0.0,0.0,88,0.00,,,0.00,0,WeatherHawk,2013-02-16 09:19:00,
2013-02-16 01:24:00,36.4,33.1,30.28,ESE,114,2.0,0.0,88,0.00,,,0.00,0,WeatherHawk,2013-02-16 09:24:00,
2013-02-16 01:29:00,33.8,29.5,30.28,NNW,347,0.0,-999.0,84,0.00,,,0.00,0,WeatherHawk,2013-02-16 09:29:00,
2013-02-16 01:34:00,33.9,30.2,30.28,East,96,0.0,0.0,86,0.00,,,0.00,0,WeatherHawk,2013-02-16 09:34:00,
2013-02-16 01:39:00,34.1,31.2,30.28,North,351,0.0,0.0,89,0.00,,,0.00,0,WeatherHawk,2013-02-16 09:39:00,
2013-02-16 01:44:00,34.0,31.7,30.28,SSE,147,0.0,0.0,91,0.00,,,0.00,1,WeatherHawk,2013-02-16 09:44:00,
2013-02-16 01:49:00,34.1,31.8,30.28,SE,136,0.0,0.0,91,0.00,,,0.00,0,WeatherHawk,2013-02-16 09:49:00,
2013-02-16 01:54:00,33.7,31.7,30.28,WNW,298,0.0,0.0,92,0.00,,,0.00,0,WeatherHawk,2013-02-16 09:54:00,
2013-02-16 01:59:00,34.0,32.4,30.28,SE,139,0.0,-999.0,94,0.00,,,0.00,0,WeatherHawk,2013-02-16 09:59:00,
2013-02-16 02:04:00,34.9,33.4,30.27,SE,139,0.0,0.0,94,0.00,,,0.00,0,WeatherHawk,2013-02-16 10:04:00,
2013-02-16 02:09:00,34.6,32.3,30.27,South,178,0.0,0.0,91,0.00,,,0.00,1,WeatherHawk,2013-02-16 10:09:00,
2013-02-16 02:14:00,34.5,32.2,30.27,South,178,0.0,0.0,91,0.00,,,0.00,0,WeatherHawk,2013-02-16 10:14:00,
2013-02-16 02:19:00,34.8,32.4,30.27,WSW,252,0.0,-999.0,91,0.00,,,0.00,0,WeatherHawk,2013-02-16 10:19:00,
2013-02-16 02:24:00,35.5,32.6,30.27,SE,146,0.0,0.0,89,0.00,,,0.00,0,WeatherHawk,2013-02-16 10:24:00,
2013-02-16 02:29:00,34.3,30.8,30.26,WNW,293,0.0,0.0,87,0.00,,,0.00,0,WeatherHawk,2013-02-16 10:29:00,
2013-02-16 02:34:00,33.2,30.0,30.26,WNW,293,0.0,0.0,88,0.00,,,0.00,0,WeatherHawk,2013-02-16 10:34:00,
2013-02-16 02:39:00,34.8,33.0,30.26,North,350,0.0,-999.0,93,0.00,,,0.00,0,WeatherHawk,2013-02-16 10:39:00,
2013-02-16 02:44:00,33.5,31.2,30.26,NW,308,3.0,0.0,91,0.00,,,0.00,1,WeatherHawk,2013-02-16 10:44:00,
2013-02-16 02:49:00,36.4,34.6,30.26,SW,216,2.0,0.0,93,0.00,,,0.00,1,WeatherHawk,2013-02-16 10:49:00,
2013-02-16 02:54:00,33.9,31.6,30.26,ENE,64,0.0,0.0,91,0.00,,,0.00,1,WeatherHawk,2013-02-16 10:54:00,
2013-02-16 02:59:00,34.1,32.0,30.25,SSE,149,0.0,0.0,92,0.00,,,0.00,0,WeatherHawk,2013-02-16 10:59:00,
2013-02-16 03:04:00,39.7,35.2,30.25,South,169,5.0,0.0,84,0.00,,,0.00,1,WeatherHawk,2013-02-16 11:04:00,
2013-02-16 03:09:00,32.0,25.3,30.25,WNW,293,0.0,0.0,76,0.00,,,0.00,0,WeatherHawk,2013-02-16 11:09:00,
2013-02-16 03:14:00,42.1,36.0,30.25,SSW,199,7.0,0.0,79,0.00,,,0.00,1,WeatherHawk,2013-02-16 11:14:00,
2013-02-16 03:19:00,32.2,22.5,30.25,NNW,339,0.0,0.0,67,0.00,,,0.00,1,WeatherHawk,2013-02-16 11:19:00,
2013-02-16 03:24:00,34.5,29.5,30.24,SSW,205,1.0,0.0,82,0.00,,,0.00,0,WeatherHawk,2013-02-16 11:24:00,
2013-02-16 03:29:00,32.1,27.5,30.24,East,81,0.0,0.0,83,0.00,,,0.00,0,WeatherHawk,2013-02-16 11:29:00,
2013-02-16 03:34:00,32.5,29.4,30.24,NW,308,2.0,0.0,88,0.00,,,0.00,0,WeatherHawk,2013-02-16 11:34:00,
2013-02-16 03:39:00,33.1,30.5,30.24,ESE,110,0.0,0.0,90,0.00,,,0.00,1,WeatherHawk,2013-02-16 11:39:00,
2013-02-16 03:44:00,32.2,29.6,30.25,SW,233,0.0,0.0,90,0.00,,,0.00,0,WeatherHawk,2013-02-16 11:44:00,
2013-02-16 03:49:00,37.4,35.6,30.24,SSE,161,1.0,0.0,93,0.00,,,0.00,0,WeatherHawk,2013-02-16 11:49:00,
2013-02-16 03:54:00,31.3,23.3,30.24,WNW,284,0.0,0.0,72,0.00,,,0.00,0,WeatherHawk,2013-02-16 11:54:00,
2013-02-16 03:59:00,31.9,28.2,30.24,WNW,284,2.0,-999.0,86,0.00,,,0.00,0,WeatherHawk,2013-02-16 11:59:00,
2013-02-16 04:04:00,35.0,32.6,30.23,SSW,196,3.0,0.0,91,0.00,,,0.00,0,WeatherHawk,2013-02-16 12:04:00,
2013-02-16 04:09:00,34.5,29.3,30.24,SSW,207,2.0,0.0,81,0.00,,,0.00,0,WeatherHawk,2013-02-16 12:09:00,
2013-02-16 04:14:00,32.8,27.3,30.23,SSE,147,2.0,0.0,80,0.00,,,0.00,0,WeatherHawk,2013-02-16 12:14:00,
2013-02-16 04:19:00,37.2,31.3,30.23,SSE,154,3.0,0.0,79,0.00,,,0.00,1,WeatherHawk,2013-02-16 12:19:00,
2013-02-16 04:24:00,34.9,27.2,30.23,WNW,283,1.0,0.0,73,0.00,,,0.00,0,WeatherHawk,2013-02-16 12:24:00,
2013-02-16 04:29:00,35.6,29.4,30.23,SE,145,3.0,0.0,78,0.00,,,0.00,0,WeatherHawk,2013-02-16 12:29:00,
2013-02-16 04:34:00,38.0,29.4,30.23,East,84,0.0,0.0,71,0.00,,,0.00,0,WeatherHawk,2013-02-16 12:34:00,
2013-02-16 04:39:00,33.3,28.4,30.23,ESE,112,4.0,-999.0,82,0.00,,,0.00,1,WeatherHawk,2013-02-16 12:39:00,
2013-02-16 04:44:00,33.6,25.9,30.23,NNW,333,0.0,0.0,73,0.00,,,0.00,0,WeatherHawk,2013-02-16 12:44:00,
2013-02-16 04:49:00,35.5,30.5,30.23,NE,37,0.0,-999.0,82,0.00,,,0.00,0,WeatherHawk,2013-02-16 12:49:00,
2013-02-16 04:54:00,32.4,27.9,30.23,North,5,0.0,0.0,83,0.00,,,0.00,0,WeatherHawk,2013-02-16 12:54:00,
2013-02-16 04:59:00,32.8,28.8,30.23,East,96,0.0,0.0,85,0.00,,,0.00,0,WeatherHawk,2013-02-16 12:59:00,
2013-02-16 05:04:00,31.8,28.6,30.23,NNW,334,2.0,0.0,88,0.00,,,0.00,1,WeatherHawk,2013-02-16 13:04:00,
2013-02-16 05:09:00,31.6,29.3,30.24,West,281,0.0,-999.0,91,0.00,,,0.00,0,WeatherHawk,2013-02-16 13:09:00,
2013-02-16 05:14:00,31.1,29.6,30.24,NW,325,0.0,0.0,94,0.00,,,0.00,0,WeatherHawk,2013-02-16 13:14:00,
2013-02-16 05:19:00,37.3,35.5,30.24,NE,54,0.0,-999.0,93,0.00,,,0.00,0,WeatherHawk,2013-02-16 13:19:00,
2013-02-16 05:24:00,38.1,32.8,30.23,ESE,120,0.0,0.0,81,0.00,,,0.00,0,WeatherHawk,2013-02-16 13:24:00,
2013-02-16 05:29:00,36.4,30.8,30.23,NNE,30,0.0,0.0,80,0.00,,,0.00,0,WeatherHawk,2013-02-16 13:29:00,
2013-02-16 05:34:00,37.4,31.5,30.23,NE,55,0.0,0.0,79,0.00,,,0.00,0,WeatherHawk,2013-02-16 13:34:00,
2013-02-16 05:39:00,42.0,25.6,30.22,SSE,162,12.0,-999.0,52,0.00,,,0.00,0,WeatherHawk,2013-02-16 13:39:00,
2013-02-16 05:44:00,37.1,25.3,30.22,SSE,155,4.0,0.0,62,0.00,,,0.00,1,WeatherHawk,2013-02-16 13:44:00,
2013-02-16 05:49:00,40.9,21.3,30.22,South,187,8.0,0.0,45,0.00,,,0.00,0,WeatherHawk,2013-02-16 13:49:00,
2013-02-16 05:54:00,41.1,20.3,30.22,South,189,7.0,0.0,43,0.00,,,0.00,0,WeatherHawk,2013-02-16 13:54:00,
2013-02-16 05:59:00,41.5,21.3,30.21,SSE,156,13.0,0.0,44,0.00,,,0.00,0,WeatherHawk,2013-02-16 13:59:00,
2013-02-16 06:04:00,40.4,20.8,30.21,SSE,168,10.0,0.0,45,0.00,,,0.00,0,WeatherHawk,2013-02-16 14:04:00,
2013-02-16 06:09:00,40.4,20.2,30.20,SSE,168,11.0,-999.0,44,0.00,,,0.00,0,WeatherHawk,2013-02-16 14:09:00,
2013-02-16 06:14:00,39.9,20.3,30.20,South,186,8.0,0.0,45,0.00,,,0.00,0,WeatherHawk,2013-02-16 14:14:00,
2013-02-16 06:19:00,40.8,20.6,30.20,SSW,193,12.0,-999.0,44,0.00,,,0.00,0,WeatherHawk,2013-02-16 14:19:00,
2013-02-16 06:24:00,40.6,19.9,30.20,SSE,168,12.0,0.0,43,0.00,,,0.00,0,WeatherHawk,2013-02-16 14:24:00,
2013-02-16 06:29:00,41.0,20.2,30.20,South,173,14.0,-999.0,43,0.00,,,0.00,0,WeatherHawk,2013-02-16 14:29:00,
2013-02-16 06:34:00,40.6,20.4,30.20,SSW,196,9.0,0.0,44,0.00,,,0.00,0,WeatherHawk,2013-02-16 14:34:00,
2013-02-16 06:39:00,40.2,19.5,30.20,SSE,158,10.0,-999.0,43,0.00,,,0.00,0,WeatherHawk,2013-02-16 14:39:00,
2013-02-16 06:44:00,40.4,19.2,30.19,South,185,11.0,0.0,42,0.00,,,0.00,0,WeatherHawk,2013-02-16 14:44:00,
2013-02-16 06:49:00,39.8,18.6,30.20,South,169,9.0,-999.0,42,0.00,,,0.00,0,WeatherHawk,2013-02-16 14:49:00,
2013-02-16 06:54:00,40.3,19.1,30.20,South,176,11.0,0.0,42,0.00,,,0.00,1,WeatherHawk,2013-02-16 14:54:00,
2013-02-16 06:59:00,40.9,20.1,30.20,South,176,14.0,0.0,43,0.00,,,0.00,2,WeatherHawk,2013-02-16 14:59:00,
2013-02-16 07:04:00,40.4,19.1,30.20,South,170,13.0,0.0,42,0.00,,,0.00,4,WeatherHawk,2013-02-16 15:04:00,
2013-02-16 07:09:00,40.2,19.0,30.20,South,172,14.0,0.0,42,0.00,,,0.00,7,WeatherHawk,2013-02-16 15:09:00,
2013-02-16 07:14:00,40.3,19.6,30.20,South,189,13.0,0.0,43,0.00,,,0.00,4,WeatherHawk,2013-02-16 15:14:00,
2013-02-16 07:19:00,40.5,19.3,30.19,South,182,15.0,0.0,42,0.00,,,0.00,11,WeatherHawk,2013-02-16 15:19:00,
2013-02-16 07:24:00,40.5,18.7,30.20,South,178,15.0,0.0,41,0.00,,,0.00,14,WeatherHawk,2013-02-16 15:24:00,
2013-02-16 07:29:00,40.5,18.7,30.20,South,182,14.0,-999.0,41,0.00,,,0.00,16,WeatherHawk,2013-02-16 15:29:00,
2013-02-16 07:34:00,40.8,18.4,30.20,SSE,165,13.0,0.0,40,0.00,,,0.00,17,WeatherHawk,2013-02-16 15:34:00,
2013-02-16 07:39:00,41.6,17.9,30.20,South,175,14.0,0.0,38,0.00,,,0.00,19,WeatherHawk,2013-02-16 15:39:00,
2013-02-16 07:44:00,41.6,18.5,30.20,South,177,13.0,0.0,39,0.00,,,0.00,21,WeatherHawk,2013-02-16 15:44:00,
2013-02-16 07:49:00,41.5,17.8,30.20,SSE,156,13.0,0.0,38,0.00,,,0.00,20,WeatherHawk,2013-02-16 15:49:00,
2013-02-16 07:54:00,41.2,17.5,30.20,SSE,160,11.0,0.0,38,0.00,,,0.00,21,WeatherHawk,2013-02-16 15:54:00,
2013-02-16 07:59:00,41.3,17.6,30.20,SSW,196,12.0,0.0,38,0.00,,,0.00,22,WeatherHawk,2013-02-16 15:59:00,
2013-02-16 08:04:00,41.3,17.6,30.20,South,176,11.0,0.0,38,0.00,,,0.00,23,WeatherHawk,2013-02-16 16:04:00,
2013-02-16 08:09:00,42.3,18.5,30.20,SSE,160,15.0,-999.0,38,0.00,,,0.00,24,WeatherHawk,2013-02-16 16:09:00,
2013-02-16 08:14:00,42.8,19.0,30.20,SSE,162,12.0,0.0,38,0.00,,,0.00,24,WeatherHawk,2013-02-16 16:14:00,
2013-02-16 08:19:00,42.6,18.2,30.20,South,176,9.0,-999.0,37,0.00,,,0.00,25,WeatherHawk,2013-02-16 16:19:00,
2013-02-16 08:24:00,43.6,18.4,30.20,SSE,159,9.0,0.0,36,0.00,,,0.00,27,WeatherHawk,2013-02-16 16:24:00,
2013-02-16 08:29:00,43.7,18.5,30.20,South,173,10.0,-999.0,36,0.00,,,0.00,28,WeatherHawk,2013-02-16 16:29:00,
2013-02-16 08:34:00,44.3,18.4,30.20,SSE,163,10.0,0.0,35,0.00,,,0.00,29,WeatherHawk,2013-02-16 16:34:00,
2013-02-16 08:39:00,45.9,18.5,30.19,SSE,151,10.0,0.0,33,0.00,,,0.00,176,WeatherHawk,2013-02-16 16:39:00,
2013-02-16 08:44:00,46.1,17.9,30.20,SSE,168,10.0,0.0,32,0.00,,,0.00,187,WeatherHawk,2013-02-16 16:44:00,
2013-02-16 08:49:00,46.6,17.6,30.19,SSE,166,8.0,-999.0,31,0.00,,,0.00,198,WeatherHawk,2013-02-16 16:49:00,
2013-02-16 08:54:00,46.7,16.1,30.19,SSE,158,9.0,0.0,29,0.00,,,0.00,208,WeatherHawk,2013-02-16 16:54:00,
2013-02-16 08:59:00,47.0,16.4,30.19,SSE,161,8.0,0.0,29,0.00,,,0.00,219,WeatherHawk,2013-02-16 16:59:00,
2013-02-16 09:04:00,48.5,16.9,30.19,SSE,164,10.0,0.0,28,0.00,,,0.00,230,WeatherHawk,2013-02-16 17:04:00,
2013-02-16 09:09:00,49.1,16.6,30.19,SSW,192,8.0,0.0,27,0.00,,,0.00,242,WeatherHawk,2013-02-16 17:09:00,
2013-02-16 09:14:00,50.2,15.7,30.19,South,173,6.0,0.0,25,0.00,,,0.00,251,WeatherHawk,2013-02-16 17:14:00,
2013-02-16 09:19:00,50.4,15.0,30.19,SSW,192,6.0,0.0,24,0.00,,,0.00,264,WeatherHawk,2013-02-16 17:19:00,
2013-02-16 09:24:00,51.0,13.5,30.19,SW,229,2.0,0.0,22,0.00,,,0.00,277,WeatherHawk,2013-02-16 17:24:00,
2013-02-16 09:29:00,50.4,14.0,30.19,WSW,246,4.0,-999.0,23,0.00,,,0.00,290,WeatherHawk,2013-02-16 17:29:00,
2013-02-16 09:34:00,53.1,13.1,30.19,SSW,205,5.0,0.0,20,0.00,,,0.00,330,WeatherHawk,2013-02-16 17:34:00,
2013-02-16 09:39:00,52.5,13.7,30.19,SSW,203,7.0,0.0,21,0.00,,,0.00,342,WeatherHawk,2013-02-16 17:39:00,
2013-02-16 09:44:00,51.5,11.8,30.19,SE,137,4.0,0.0,20,0.00,,,0.00,113,WeatherHawk,2013-02-16 17:44:00,
2013-02-16 09:49:00,52.1,14.5,30.18,WSW,256,3.0,0.0,22,0.00,,,0.00,362,WeatherHawk,2013-02-16 17:49:00,
2013-02-16 09:54:00,54.4,15.3,30.18,WSW,238,8.0,0.0,21,0.00,,,0.00,411,WeatherHawk,2013-02-16 17:54:00,
2013-02-16 09:59:00,50.1,13.7,30.18,West,277,6.0,0.0,23,0.00,,,0.00,134,WeatherHawk,2013-02-16 17:59:00,
2013-02-16 10:04:00,51.0,14.5,30.18,West,263,9.0,0.0,23,0.00,,,0.00,161,WeatherHawk,2013-02-16 18:04:00,
2013-02-16 10:09:00,52.6,15.9,30.18,WSW,254,6.0,-999.0,23,0.00,,,0.00,393,WeatherHawk,2013-02-16 18:09:00,
2013-02-16 10:14:00,51.7,14.1,30.18,WSW,256,7.0,0.0,22,0.00,,,0.00,384,WeatherHawk,2013-02-16 18:14:00,
2013-02-16 10:19:00,53.9,15.9,30.18,WSW,246,12.0,0.0,22,0.00,,,0.00,400,WeatherHawk,2013-02-16 18:19:00,
2013-02-16 10:24:00,51.5,11.8,30.18,WNW,285,7.0,0.0,20,0.00,,,0.00,420,WeatherHawk,2013-02-16 18:24:00,
2013-02-16 10:29:00,50.9,14.5,30.18,West,270,10.0,0.0,23,0.00,,,0.00,442,WeatherHawk,2013-02-16 18:29:00,
2013-02-16 10:34:00,51.7,16.1,30.18,West,266,9.0,0.0,24,0.00,,,0.00,473,WeatherHawk,2013-02-16 18:34:00,
2013-02-16 10:39:00,51.2,14.7,30.18,WSW,257,13.0,0.0,23,0.00,,,0.00,421,WeatherHawk,2013-02-16 18:39:00,
2013-02-16 10:44:00,50.7,16.2,30.18,WSW,254,12.0,0.0,25,0.00,,,0.00,445,WeatherHawk,2013-02-16 18:44:00,
2013-02-16 10:49:00,51.5,17.8,30.18,WSW,240,10.0,0.0,26,0.00,,,0.00,464,WeatherHawk,2013-02-16 18:49:00,
2013-02-16 10:54:00,52.8,18.8,30.19,SW,221,7.0,-999.0,26,0.00,,,0.00,579,WeatherHawk,2013-02-16 18:54:00,
2013-02-16 10:59:00,51.5,17.7,30.19,WSW,247,11.0,0.0,26,0.00,,,0.00,308,WeatherHawk,2013-02-16 18:59:00,
2013-02-16 11:04:00,50.1,19.1,30.19,SSW,203,9.0,0.0,29,0.00,,,0.00,120,WeatherHawk,2013-02-16 19:04:00,
2013-02-16 11:09:00,49.0,21.2,30.19,SSW,198,5.0,0.0,33,0.00,,,0.00,124,WeatherHawk,2013-02-16 19:09:00,
2013-02-16 11:14:00,48.8,20.3,30.19,WSW,254,10.0,0.0,32,0.00,,,0.00,221,WeatherHawk,2013-02-16 19:14:00,
2013-02-16 11:19:00,49.5,21.6,30.19,SW,225,6.0,-999.0,33,0.00,,,0.00,181,WeatherHawk,2013-02-16 19:19:00,
2013-02-16 11:24:00,48.7,20.9,30.19,West,265,10.0,0.0,33,0.00,,,0.00,186,WeatherHawk,2013-02-16 19:24:00,
2013-02-16 11:29:00,49.3,21.4,30.19,WSW,247,4.0,0.0,33,0.00,,,0.00,228,WeatherHawk,2013-02-16 19:29:00,
2013-02-16 11:34:00,50.2,21.5,30.19,West,259,7.0,0.0,32,0.00,,,0.00,247,WeatherHawk,2013-02-16 19:34:00,
2013-02-16 11:39:00,49.2,21.3,30.18,WNW,302,6.0,0.0,33,0.00,,,0.00,176,WeatherHawk,2013-02-16 19:39:00,
2013-02-16 11:44:00,48.9,21.8,30.19,WNW,302,9.0,0.0,34,0.00,,,0.00,174,WeatherHawk,2013-02-16 19:44:00,
2013-02-16 11:49:00,49.4,21.5,30.19,NW,310,9.0,0.0,33,0.00,,,0.00,191,WeatherHawk,2013-02-16 19:49:00,
2013-02-16 11:54:00,49.5,21.6,30.18,NW,306,10.0,0.0,33,0.00,,,0.00,172,WeatherHawk,2013-02-16 19:54:00,
2013-02-16 11:59:00,49.1,21.2,30.18,WSW,246,5.0,0.0,33,0.00,,,0.00,139,WeatherHawk,2013-02-16 19:59:00,
2013-02-16 12:04:00,48.8,19.5,30.18,West,262,14.0,-999.0,31,0.00,,,0.00,195,WeatherHawk,2013-02-16 20:04:00,
2013-02-16 12:09:00,49.3,17.6,30.18,WSW,239,9.0,0.0,28,0.00,,,0.00,191,WeatherHawk,2013-02-16 20:09:00,
2013-02-16 12:14:00,51.6,19.5,30.18,WSW,256,5.0,0.0,28,0.00,,,0.00,391,WeatherHawk,2013-02-16 20:14:00,
2013-02-16 12:19:00,50.5,18.6,30.18,West,278,7.0,0.0,28,0.00,,,0.00,257,WeatherHawk,2013-02-16 20:19:00,
2013-02-16 12:24:00,50.1,16.6,30.18,SW,230,7.0,0.0,26,0.00,,,0.00,216,WeatherHawk,2013-02-16 20:24:00,
2013-02-16 12:29:00,49.3,14.0,30.18,West,272,10.0,0.0,24,0.00,,,0.00,261,WeatherHawk,2013-02-16 20:29:00,
2013-02-16 12:34:00,50.1,15.6,30.17,West,271,6.0,0.0,25,0.00,,,0.00,195,WeatherHawk,2013-02-16 20:34:00,
2013-02-16 12:39:00,50.0,16.5,30.18,WSW,245,10.0,0.0,26,0.00,,,0.00,171,WeatherHawk,2013-02-16 20:39:00,
2013-02-16 12:44:00,48.8,15.4,30.17,West,262,8.0,-999.0,26,0.00,,,0.00,161,WeatherHawk,2013-02-16 20:44:00,
2013-02-16 12:50:00,48.3,15.0,30.17,NW,308,14.0,0.0,26,0.00,,,0.00,171,WeatherHawk,2013-02-16 20:50:00,
2013-02-16 12:54:00,47.5,14.3,30.18,WNW,297,14.0,-999.0,26,0.00,,,0.00,257,WeatherHawk,2013-02-16 20:54:00,
2013-02-16 13:00:00,48.2,14.9,30.18,WNW,291,11.0,0.0,26,0.00,,,0.00,410,WeatherHawk,2013-02-16 21:00:00,
2013-02-16 13:04:00,49.8,14.5,30.18,WNW,286,12.0,-999.0,24,0.00,,,0.00,538,WeatherHawk,2013-02-16 21:04:00,
2013-02-16 13:09:00,49.2,13.0,30.18,WNW,288,8.0,0.0,23,0.00,,,0.00,526,WeatherHawk,2013-02-16 21:09:00,
2013-02-16 13:14:00,49.8,12.5,30.17,WSW,248,10.0,0.0,22,0.00,,,0.00,521,WeatherHawk,2013-02-16 21:14:00,
2013-02-16 13:19:00,48.8,11.6,30.17,West,263,13.0,0.0,22,0.00,,,0.00,482,WeatherHawk,2013-02-16 21:19:00,
2013-02-16 13:24:00,51.1,10.3,30.18,NNW,332,6.0,-999.0,19,0.00,,,0.00,498,WeatherHawk,2013-02-16 21:24:00,
2013-02-16 13:29:00,49.3,8.8,30.18,WSW,257,15.0,0.0,19,0.00,,,0.00,469,WeatherHawk,2013-02-16 21:29:00,
2013-02-16 13:34:00,48.2,5.4,30.17,West,273,12.0,-999.0,17,0.00,,,0.00,451,WeatherHawk,2013-02-16 21:34:00,
2013-02-16 13:39:00,49.1,8.6,30.17,WNW,293,16.0,0.0,19,0.00,,,0.00,452,WeatherHawk,2013-02-16 21:39:00,
2013-02-16 13:44:00,48.4,4.3,30.17,West,265,14.0,0.0,16,0.00,,,0.00,444,WeatherHawk,2013-02-16 21:44:00,
2013-02-16 13:49:00,50.0,5.6,30.17,WSW,254,11.0,0.0,16,0.00,,,0.00,440,WeatherHawk,2013-02-16 21:49:00,
2013-02-16 13:54:00,48.2,-0.3,30.17,NW,317,12.0,0.0,13,0.00,,,0.00,416,WeatherHawk,2013-02-16 21:54:00,
2013-02-16 13:59:00,47.6,-0.8,30.17,WNW,299,18.0,0.0,13,0.00,,,0.00,406,WeatherHawk,2013-02-16 21:59:00,
2013-02-16 14:04:00,49.9,-0.7,30.17,SW,219,5.0,-999.0,12,0.00,,,0.00,395,WeatherHawk,2013-02-16 22:04:00,
2013-02-16 14:09:00,48.9,-5.2,30.17,WSW,247,10.0,0.0,10,0.00,,,0.00,387,WeatherHawk,2013-02-16 22:09:00,
2013-02-16 14:14:00,49.6,2.4,30.17,SW,235,8.0,0.0,14,0.00,,,0.00,380,WeatherHawk,2013-02-16 22:14:00,
2013-02-16 14:19:00,48.1,-2.1,30.17,West,269,8.0,0.0,12,0.00,,,0.00,374,WeatherHawk,2013-02-16 22:19:00,
2013-02-16 14:24:00,49.4,2.2,30.17,SW,234,6.0,0.0,14,0.00,,,0.00,366,WeatherHawk,2013-02-16 22:24:00,
2013-02-16 14:29:00,47.3,0.6,30.17,NW,315,15.0,0.0,14,0.00,,,0.00,362,WeatherHawk,2013-02-16 22:29:00,
2013-02-16 14:34:00,47.2,3.4,30.17,West,277,16.0,-999.0,16,0.00,,,0.00,366,WeatherHawk,2013-02-16 22:34:00,
2013-02-16 14:39:00,48.4,2.9,30.17,WNW,286,11.0,0.0,15,0.00,,,0.00,372,WeatherHawk,2013-02-16 22:39:00,
2013-02-16 14:44:00,47.1,3.3,30.17,West,267,15.0,0.0,16,0.00,,,0.00,395,WeatherHawk,2013-02-16 22:44:00,
2013-02-16 14:49:00,47.0,3.1,30.17,WNW,285,17.0,0.0,16,0.00,,,0.00,405,WeatherHawk,2013-02-16 22:49:00,
2013-02-16 14:54:00,47.7,3.8,30.17,WSW,252,8.0,-999.0,16,0.00,,,0.00,401,WeatherHawk,2013-02-16 22:54:00,
2013-02-16 14:59:00,48.0,4.0,30.17,West,273,10.0,0.0,16,0.00,,,0.00,364,WeatherHawk,2013-02-16 22:59:00,
2013-02-16 15:04:00,47.9,2.5,30.17,WSW,244,10.0,0.0,15,0.00,,,0.00,315,WeatherHawk,2013-02-16 23:04:00,
2013-02-16 15:09:00,49.0,3.4,30.17,WSW,256,6.0,0.0,15,0.00,,,0.00,294,WeatherHawk,2013-02-16 23:09:00,
2013-02-16 15:14:00,49.5,3.8,30.17,WSW,242,6.0,-999.0,15,0.00,,,0.00,286,WeatherHawk,2013-02-16 23:14:00,
2013-02-16 15:19:00,47.5,2.2,30.17,WSW,258,13.0,0.0,15,0.00,,,0.00,275,WeatherHawk,2013-02-16 23:19:00,
2013-02-16 15:24:00,47.9,2.5,30.17,WSW,255,14.0,-999.0,15,0.00,,,0.00,264,WeatherHawk,2013-02-16 23:24:00,
2013-02-16 15:29:00,47.4,4.8,30.17,WNW,301,19.0,0.0,17,0.00,,,0.00,264,WeatherHawk,2013-02-16 23:29:00,
2013-02-16 15:34:00,47.0,4.5,30.17,West,275,8.0,0.0,17,0.00,,,0.00,249,WeatherHawk,2013-02-16 23:34:00,
2013-02-16 15:39:00,47.9,8.8,30.17,SSW,205,7.0,0.0,20,0.00,,,0.00,236,WeatherHawk,2013-02-16 23:39:00,
2013-02-16 15:44:00,46.7,7.8,30.17,NW,305,7.0,-999.0,20,0.00,,,0.00,215,WeatherHawk,2013-02-16 23:44:00,
2013-02-16 15:49:00,46.9,6.8,30.17,WSW,243,9.0,0.0,19,0.00,,,0.00,213,WeatherHawk,2013-02-16 23:49:00,
2013-02-16 15:54:00,46.9,4.4,30.17,SW,236,11.0,0.0,17,0.00,,,0.00,198,WeatherHawk,2013-02-16 23:54:00,
2013-02-16 15:59:00,47.1,7.0,30.17,WSW,256,8.0,0.0,19,0.00,,,0.00,195,WeatherHawk,2013-02-16 23:59:00,
2013-02-16 16:04:00,46.5,4.1,30.17,WSW,251,16.0,0.0,17,0.00,,,0.00,182,WeatherHawk,2013-02-17 00:04:00,
2013-02-16 16:09:00,46.1,7.2,30.17,SW,234,7.0,0.0,20,0.00,,,0.00,27,WeatherHawk,2013-02-17 00:09:00,
2013-02-16 16:14:00,45.1,7.6,30.17,WSW,241,10.0,0.0,21,0.00,,,0.00,30,WeatherHawk,2013-02-17 00:14:00,
2013-02-16 16:19:00,44.8,11.1,30.17,West,264,10.0,0.0,25,0.00,,,0.00,30,WeatherHawk,2013-02-17 00:19:00,
2013-02-16 16:24:00,44.9,12.1,30.17,WNW,285,10.0,-999.0,26,0.00,,,0.00,108,WeatherHawk,2013-02-17 00:24:00,
2013-02-16 16:29:00,44.1,13.9,30.17,WSW,255,11.0,0.0,29,0.00,,,0.00,49,WeatherHawk,2013-02-17 00:29:00,
2013-02-16 16:34:00,44.9,13.8,30.17,SW,224,12.0,0.0,28,0.00,,,0.00,116,WeatherHawk,2013-02-17 00:34:00,
2013-02-16 16:39:00,44.5,12.6,30.17,SW,236,10.0,-999.0,27,0.00,,,0.00,22,WeatherHawk,2013-02-17 00:39:00,
2013-02-16 16:44:00,43.9,14.5,30.17,WSW,244,8.0,-999.0,30,0.00,,,0.00,21,WeatherHawk,2013-02-17 00:44:00,
2013-02-16 16:49:00,43.9,14.5,30.18,SW,232,18.0,0.0,30,0.00,,,0.00,20,WeatherHawk,2013-02-17 00:49:00,
2013-02-16 16:54:00,44.2,13.9,30.17,SW,235,7.0,0.0,29,0.00,,,0.00,78,WeatherHawk,2013-02-17 00:54:00,
2013-02-16 16:59:00,43.7,13.6,30.17,WSW,254,13.0,-999.0,29,0.00,,,0.00,69,WeatherHawk,2013-02-17 00:59:00,
2013-02-16 17:04:00,43.6,14.2,30.17,SW,226,8.0,0.0,30,0.00,,,0.00,59,WeatherHawk,2013-02-17 01:04:00,
2013-02-16 17:09:00,43.1,13.8,30.18,WNW,282,6.0,-999.0,30,0.00,,,0.00,30,WeatherHawk,2013-02-17 01:09:00,
2013-02-16 17:14:00,43.0,14.5,30.18,WSW,246,9.0,0.0,31,0.00,,,0.00,18,WeatherHawk,2013-02-17 01:14:00,
2013-02-16 17:19:00,42.8,14.2,30.18,NW,319,15.0,-999.0,31,0.00,,,0.00,10,WeatherHawk,2013-02-17 01:19:00,
2013-02-16 17:24:00,42.7,14.9,30.18,West,260,16.0,0.0,32,0.00,,,0.00,7,WeatherHawk,2013-02-17 01:24:00,
2013-02-16 17:29:00,42.3,14.6,30.18,West,274,10.0,0.0,32,0.00,,,0.00,5,WeatherHawk,2013-02-17 01:29:00,
2013-02-16 17:34:00,41.9,14.3,30.18,West,268,5.0,-999.0,32,0.00,,,0.00,4,WeatherHawk,2013-02-17 01:34:00,
2013-02-16 17:39:00,41.9,15.6,30.18,SSW,211,9.0,-999.0,34,0.00,,,0.00,2,WeatherHawk,2013-02-17 01:39:00,
2013-02-16 17:44:00,41.9,16.3,30.18,SW,226,7.0,0.0,35,0.00,,,0.00,2,WeatherHawk,2013-02-17 01:44:00,
2013-02-16 17:49:00,41.5,16.6,30.18,WSW,239,10.0,-999.0,36,0.00,,,0.00,0,WeatherHawk,2013-02-17 01:49:00,
2013-02-16 17:54:00,41.6,16.6,30.18,WSW,238,9.0,-999.0,36,0.00,,,0.00,0,WeatherHawk,2013-02-17 01:54:00,
2013-02-16 17:59:00,42.1,15.8,30.18,West,273,18.0,0.0,34,0.00,,,0.00,0,WeatherHawk,2013-02-17 01:59:00,
2013-02-16 18:04:00,41.3,15.7,30.19,SW,225,7.0,0.0,35,0.00,,,0.00,0,WeatherHawk,2013-02-17 02:04:00,
2013-02-16 18:09:00,41.8,15.5,30.19,WSW,244,14.0,0.0,34,0.00,,,0.00,1,WeatherHawk,2013-02-17 02:09:00,
2013-02-16 18:14:00,41.2,16.3,30.19,West,264,7.0,0.0,36,0.00,,,0.00,1,WeatherHawk,2013-02-17 02:14:00,
2013-02-16 18:19:00,40.7,16.5,30.19,WSW,253,5.0,0.0,37,0.00,,,0.00,0,WeatherHawk,2013-02-17 02:19:00,
2013-02-16 18:24:00,40.6,16.4,30.19,WSW,250,8.0,0.0,37,0.00,,,0.00,0,WeatherHawk,2013-02-17 02:24:00,
2013-02-16 18:29:00,41.1,16.8,30.19,West,265,10.0,0.0,37,0.00,,,0.00,0,WeatherHawk,2013-02-17 02:29:00,
2013-02-16 18:34:00,40.7,17.1,30.18,WSW,250,6.0,0.0,38,0.00,,,0.00,0,WeatherHawk,2013-02-17 02:34:00,
2013-02-16 18:39:00,40.3,17.3,30.18,NW,309,4.0,0.0,39,0.00,,,0.00,0,WeatherHawk,2013-02-17 02:39:00,
2013-02-16 18:44:00,39.7,17.3,30.19,SSW,194,2.0,-999.0,40,0.00,,,0.00,0,WeatherHawk,2013-02-17 02:44:00,
2013-02-16 18:49:00,39.2,17.5,30.19,SW,222,0.0,-999.0,41,0.00,,,0.00,0,WeatherHawk,2013-02-17 02:49:00,
2013-02-16 18:54:00,40.1,18.8,30.19,NW,318,3.0,0.0,42,0.00,,,0.00,0,WeatherHawk,2013-02-17 02:54:00,
2013-02-16 18:59:00,40.2,18.4,30.19,SW,218,4.0,0.0,41,0.00,,,0.00,0,WeatherHawk,2013-02-17 02:59:00,
2013-02-16 19:05:00,39.5,18.8,30.19,NNW,328,2.0,0.0,43,0.00,,,0.00,0,WeatherHawk,2013-02-17 03:05:00,
2013-02-16 19:10:00,39.8,19.7,30.19,WSW,243,7.0,0.0,44,0.00,,,0.00,0,WeatherHawk,2013-02-17 03:10:00,
2013-02-16 19:15:00,39.0,19.0,30.19,WSW,253,4.0,0.0,44,0.00,,,0.00,0,WeatherHawk,2013-02-17 03:15:00,
2013-02-16 19:20:00,38.6,19.2,30.19,SSW,207,6.0,0.0,45,0.00,,,0.00,0,WeatherHawk,2013-02-17 03:20:00,
2013-02-16 19:25:00,39.1,20.6,30.19,SW,233,9.0,0.0,47,0.00,,,0.00,0,WeatherHawk,2013-02-17 03:25:00,
2013-02-16 19:30:00,38.5,19.6,30.18,SW,236,5.0,0.0,46,0.00,,,0.00,0,WeatherHawk,2013-02-17 03:30:00,
2013-02-16 19:35:00,38.6,20.1,30.18,WSW,247,6.0,0.0,47,0.00,,,0.00,0,WeatherHawk,2013-02-17 03:35:00,
2013-02-16 19:40:00,38.5,20.0,30.18,SSE,155,5.0,0.0,47,0.00,,,0.00,0,WeatherHawk,2013-02-17 03:40:00,
2013-02-16 19:45:00,38.6,19.6,30.18,WSW,247,4.0,0.0,46,0.00,,,0.00,0,WeatherHawk,2013-02-17 03:45:00,
2013-02-16 19:50:00,38.6,18.1,30.19,WSW,253,7.0,0.0,43,0.00,,,0.00,0,WeatherHawk,2013-02-17 03:50:00,
2013-02-16 19:55:00,40.1,17.8,30.19,WNW,295,7.0,0.0,40,0.00,,,0.00,0,WeatherHawk,2013-02-17 03:55:00,
2013-02-16 20:00:00,38.5,15.7,30.19,South,190,0.0,0.0,39,0.00,,,0.00,0,WeatherHawk,2013-02-17 04:00:00,
2013-02-16 20:05:00,39.3,18.2,30.20,East,89,6.0,0.0,42,0.00,,,0.00,0,WeatherHawk,2013-02-17 04:05:00,
2013-02-16 20:10:00,39.2,19.7,30.20,SSE,150,5.0,0.0,45,0.00,,,0.00,0,WeatherHawk,2013-02-17 04:10:00,
2013-02-16 20:15:00,38.7,18.2,30.20,ESE,103,0.0,0.0,43,0.00,,,0.00,0,WeatherHawk,2013-02-17 04:15:00,
2013-02-16 20:20:00,38.0,17.0,30.20,South,170,4.0,0.0,42,0.00,,,0.00,0,WeatherHawk,2013-02-17 04:20:00,
2013-02-16 20:25:00,39.5,17.8,30.21,West,261,5.0,0.0,41,0.00,,,0.00,0,WeatherHawk,2013-02-17 04:25:00,
2013-02-16 20:30:00,39.2,15.8,30.20,SSE,150,1.0,0.0,38,0.00,,,0.00,0,WeatherHawk,2013-02-17 04:30:00,
2013-02-16 20:35:00,38.3,17.2,30.20,WSW,238,5.0,0.0,42,0.00,,,0.00,0,WeatherHawk,2013-02-17 04:35:00,
2013-02-16 20:40:00,38.7,14.1,30.20,WSW,252,7.0,0.0,36,0.00,,,0.00,0,WeatherHawk,2013-02-17 04:40:00,
2013-02-16 20:45:00,38.2,13.6,30.20,SW,229,5.0,0.0,36,0.00,,,0.00,0,WeatherHawk,2013-02-17 04:45:00,
2013-02-16 20:50:00,38.2,14.2,30.20,SSW,208,6.0,0.0,37,0.00,,,0.00,0,WeatherHawk,2013-02-17 04:50:00,
2013-02-16 20:55:00,38.0,14.0,30.20,SSW,200,3.0,0.0,37,0.00,,,0.00,0,WeatherHawk,2013-02-17 04:55:00,
2013-02-16 21:00:00,38.2,14.8,30.20,SW,233,5.0,0.0,38,0.00,,,0.00,0,WeatherHawk,2013-02-17 05:00:00,
2013-02-16 21:03:00,37.8,13.9,30.20,WSW,240,5.0,0.0,37,0.00,,,0.00,0,WeatherHawk,2013-02-17 05:03:00,
2013-02-16 21:04:00,38.7,14.0,30.20,SW,229,7.0,0.0,36,0.00,,,0.00,0,WeatherHawk,2013-02-17 05:04:00,
2013-02-16 21:09:00,37.9,13.3,30.20,WSW,238,3.0,0.0,36,0.00,,,0.00,0,WeatherHawk,2013-02-17 05:09:00,
2013-02-16 21:14:00,39.0,14.3,30.20,West,261,8.0,0.0,36,0.00,,,0.00,0,WeatherHawk,2013-02-17 05:14:00,
2013-02-16 21:19:00,38.2,14.3,30.20,WSW,240,3.0,0.0,37,0.00,,,0.00,0,WeatherHawk,2013-02-17 05:19:00,
2013-02-16 21:24:00,38.4,14.4,30.20,SW,220,7.0,0.0,37,0.00,,,0.00,0,WeatherHawk,2013-02-17 05:24:00,
2013-02-16 21:29:00,37.5,14.2,30.20,SW,228,3.0,0.0,38,0.00,,,0.00,0,WeatherHawk,2013-02-17 05:29:00,
2013-02-16 21:34:00,37.5,13.6,30.20,SW,232,2.0,0.0,37,0.00,,,0.00,0,WeatherHawk,2013-02-17 05:34:00,
2013-02-16 21:39:00,38.1,14.7,30.20,WNW,288,3.0,0.0,38,0.00,,,0.00,0,WeatherHawk,2013-02-17 05:39:00,
2013-02-16 21:44:00,37.4,14.7,30.20,SSW,212,4.0,0.0,39,0.00,,,0.00,0,WeatherHawk,2013-02-17 05:44:00,
2013-02-16 21:49:00,37.7,15.6,30.20,SSW,209,6.0,0.0,40,0.00,,,0.00,0,WeatherHawk,2013-02-17 05:49:00,
2013-02-16 21:54:00,37.2,14.6,30.20,SW,229,2.0,0.0,39,0.00,,,0.00,0,WeatherHawk,2013-02-17 05:54:00,
2013-02-16 21:59:00,37.2,14.5,30.20,WSW,249,4.0,0.0,39,0.00,,,0.00,0,WeatherHawk,2013-02-17 05:59:00,
2013-02-16 22:04:00,37.3,15.2,30.20,SW,232,2.0,0.0,40,0.00,,,0.00,0,WeatherHawk,2013-02-17 06:04:00,
2013-02-16 22:09:00,37.2,16.8,30.20,ENE,61,3.0,0.0,43,0.00,,,0.00,0,WeatherHawk,2013-02-17 06:09:00,
2013-02-16 22:14:00,37.4,17.0,30.20,WNW,292,5.0,0.0,43,0.00,,,0.00,0,WeatherHawk,2013-02-17 06:14:00,
2013-02-16 22:19:00,36.9,16.5,30.21,North,7,1.0,0.0,43,0.00,,,0.00,0,WeatherHawk,2013-02-17 06:19:00,
2013-02-16 22:24:00,36.4,18.1,30.21,NE,56,1.0,0.0,47,0.00,,,0.00,0,WeatherHawk,2013-02-17 06:24:00,
2013-02-16 22:29:00,36.9,17.6,30.21,ENE,72,3.0,0.0,45,0.00,,,0.00,0,WeatherHawk,2013-02-17 06:29:00,
2013-02-16 22:34:00,37.1,15.6,30.21,SE,124,6.0,-999.0,41,0.00,,,0.00,0,WeatherHawk,2013-02-17 06:34:00,
2013-02-16 22:39:00,35.2,13.9,30.21,SSW,197,0.0,0.0,41,0.00,,,0.00,0,WeatherHawk,2013-02-17 06:39:00,
2013-02-16 22:44:00,36.2,15.9,30.21,WSW,249,0.0,0.0,43,0.00,,,0.00,0,WeatherHawk,2013-02-17 06:44:00,
2013-02-16 22:49:00,36.9,16.0,30.21,NNE,30,2.0,0.0,42,0.00,,,0.00,0,WeatherHawk,2013-02-17 06:49:00,
2013-02-16 22:54:00,37.6,17.6,30.21,NNE,31,4.0,0.0,44,0.00,,,0.00,0,WeatherHawk,2013-02-17 06:54:00,
2013-02-16 22:59:00,35.8,16.6,30.21,NNW,335,4.0,0.0,45,0.00,,,0.00,0,WeatherHawk,2013-02-17 06:59:00,
2013-02-16 23:04:00,33.7,17.1,30.21,NW,323,0.0,-999.0,50,0.00,,,0.00,0,WeatherHawk,2013-02-17 07:04:00,
2013-02-16 23:09:00,34.0,18.2,30.22,South,174,0.0,0.0,52,0.00,,,0.00,0,WeatherHawk,2013-02-17 07:09:00,
2013-02-16 23:14:00,34.1,17.9,30.22,NE,54,0.0,-999.0,51,0.00,,,0.00,0,WeatherHawk,2013-02-17 07:14:00,
2013-02-16 23:19:00,34.4,19.9,30.22,ENE,62,5.0,0.0,55,0.00,,,0.00,0,WeatherHawk,2013-02-17 07:19:00,
2013-02-16 23:24:00,34.6,19.2,30.22,ENE,74,0.0,0.0,53,0.00,,,0.00,0,WeatherHawk,2013-02-17 07:24:00,
2013-02-16 23:29:00,34.4,16.7,30.22,SSE,150,0.0,0.0,48,0.00,,,0.00,0,WeatherHawk,2013-02-17 07:29:00,
2013-02-16 23:34:00,34.9,16.7,30.22,ESE,118,2.0,0.0,47,0.00,,,0.00,1,WeatherHawk,2013-02-17 07:34:00,
2013-02-16 23:39:00,35.4,17.7,30.22,NE,39,1.0,0.0,48,0.00,,,0.00,0,WeatherHawk,2013-02-17 07:39:00,
2013-02-16 23:44:00,35.5,18.3,30.22,ESE,107,2.0,-999.0,49,0.00,,,0.00,0,WeatherHawk,2013-02-17 07:44:00,
2013-02-16 23:49:00,35.8,16.5,30.22,ESE,113,4.0,0.0,45,0.00,,,0.00,1,WeatherHawk,2013-02-17 07:49:00,
2013-02-16 23:54:00,35.6,17.9,30.22,WNW,300,0.0,-999.0,48,0.00,,,0.00,0,WeatherHawk,2013-02-17 07:54:00,
2013-02-16 23:59:00,34.9,18.2,30.22,SSE,155,3.0,0.0,50,0.00,,,0.00,1,WeatherHawk,2013-02-17 07:59:00,